Time;durP1;ratioP1;P1;durP2;ratioP2;P2;SDS_P1;SDS_P2;PMS_P1;PMS_P2;Temp;Humidity;BMP_temperature;BMP_pressure;BME280_temperature;BME280_humidity;BME280_pressure;Samples;Min_cycle;Max_cycle;Signal;HPM_P1;HPM_P2
2024/03/01 00:05:52;;;;;;;12.68;7.88;;;9.40;99.90;;;;;;20668802;28;20058;-41
2024/03/01 00:15:52;;;;;;;12.13;7.32;;;9.40;99.90;;;;;;20682330;28;20048;-41
2024/03/01 00:25:54;;;;;;;12.40;7.17;;;9.50;99.90;;;;;;20693406;28;20548;-41
2024/03/01 00:35:55;;;;;;;12.13;6.82;;;9.50;99.90;;;;;;20690877;28;20465;-41
2024/03/01 00:45:55;;;;;;;10.15;6.13;;;9.50;99.90;;;;;;20687264;28;20853;-42
2024/03/01 00:55:56;;;;;;;8.68;5.95;;;9.50;99.90;;;;;;20682942;28;20102;-41
2024/03/01 01:05:56;;;;;;;14.77;6.77;;;9.50;99.90;;;;;;20684349;28;20038;-41
2024/03/01 01:15:57;;;;;;;9.65;5.25;;;9.50;99.90;;;;;;20664146;28;20053;-41
2024/03/01 01:25:57;;;;;;;11.43;5.88;;;9.40;99.90;;;;;;20679156;28;20122;-41
2024/03/01 01:35:58;;;;;;;7.90;4.80;;;9.50;99.90;;;;;;20677787;28;20427;-42
2024/03/01 01:45:59;;;;;;;9.50;5.20;;;9.50;99.90;;;;;;20674958;28;20049;-42
2024/03/01 01:56:00;;;;;;;8.40;4.90;;;9.60;99.90;;;;;;20677497;28;20053;-41
2024/03/01 02:06:05;;;;;;;8.52;5.07;;;9.60;99.90;;;;;;20678013;28;20042;-41
2024/03/01 02:16:06;;;;;;;8.38;5.32;;;9.60;99.90;;;;;;20666217;28;20710;-42
2024/03/01 02:26:07;;;;;;;7.93;4.70;;;9.60;99.90;;;;;;20667689;28;20493;-42
2024/03/01 02:36:08;;;;;;;8.05;4.93;;;9.70;99.90;;;;;;20664097;28;20061;-41
2024/03/01 02:46:09;;;;;;;9.05;4.68;;;9.60;99.90;;;;;;20666487;28;20527;-41
2024/03/01 02:56:09;;;;;;;6.05;4.43;;;9.70;99.90;;;;;;20661942;28;20042;-41
2024/03/01 03:06:10;;;;;;;6.05;4.43;;;9.70;99.90;;;;;;20669500;28;20486;-41
2024/03/01 03:16:10;;;;;;;6.07;3.75;;;9.70;99.90;;;;;;20664059;28;20065;-41
2024/03/01 03:26:11;;;;;;;3.83;0.98;;;9.70;99.90;;;;;;20673102;28;20057;-41
2024/03/01 03:36:12;;;;;;;2.67;0.95;;;9.20;99.90;;;;;;20673201;28;20038;-41
2024/03/01 03:46:12;;;;;;;4.82;1.77;;;8.40;99.90;;;;;;20675936;28;20081;-41
2024/03/01 03:56:13;;;;;;;4.50;1.27;;;7.90;99.90;;;;;;20693769;28;20501;-40
2024/03/01 04:06:14;;;;;;;5.50;1.00;;;7.60;99.90;;;;;;20698091;28;20050;-40
2024/03/01 04:16:16;;;;;;;3.63;0.30;;;7.40;99.90;;;;;;20688636;28;20632;-42
2024/03/01 04:26:18;;;;;;;4.53;0.40;;;7.30;99.90;;;;;;20689590;28;20108;-41
2024/03/01 04:36:20;;;;;;;3.38;0.70;;;7.20;99.90;;;;;;20670851;28;20112;-41
2024/03/01 04:46:22;;;;;;;6.50;0.70;;;7.10;99.90;;;;;;20685544;28;20651;-41
2024/03/01 04:56:22;;;;;;;3.08;0.70;;;7.10;99.90;;;;;;20685481;28;20490;-42
2024/03/01 05:06:23;;;;;;;8.90;1.05;;;7.00;99.90;;;;;;20686346;28;20509;-40
2024/03/01 05:16:24;;;;;;;6.95;1.30;;;7.00;99.90;;;;;;20690979;28;20048;-41
2024/03/01 05:26:25;;;;;;;4.43;1.27;;;7.00;99.90;;;;;;20682154;28;20456;-41
2024/03/01 05:36:26;;;;;;;6.53;1.48;;;6.90;99.90;;;;;;20687665;28;20062;-41
2024/03/01 05:46:28;;;;;;;3.85;1.42;;;7.00;99.90;;;;;;20686558;28;20037;-41
2024/03/01 05:56:29;;;;;;;6.07;1.58;;;7.00;99.90;;;;;;20683815;28;20048;-40
2024/03/01 06:06:30;;;;;;;5.72;1.98;;;6.80;99.90;;;;;;20683322;28;20037;-43
2024/03/01 06:16:31;;;;;;;7.53;2.65;;;6.70;99.90;;;;;;20681749;28;20046;-41
2024/03/01 06:26:31;;;;;;;7.93;2.90;;;6.50;99.90;;;;;;20682813;28;20073;-40
2024/03/01 06:36:32;;;;;;;8.23;3.28;;;6.40;99.90;;;;;;20674640;28;20141;-40
2024/03/01 06:46:32;;;;;;;7.00;2.85;;;6.40;99.90;;;;;;20677439;28;20038;-42
2024/03/01 06:56:33;;;;;;;7.70;2.75;;;6.30;99.90;;;;;;20677418;28;20383;-41
2024/03/01 07:06:34;;;;;;;6.53;3.25;;;6.20;99.90;;;;;;20676266;28;20104;-41
2024/03/01 07:16:35;;;;;;;6.95;3.67;;;6.20;99.90;;;;;;20676243;28;20038;-42
2024/03/01 07:26:35;;;;;;;4.50;2.40;;;6.10;99.90;;;;;;20670629;28;20506;-42
2024/03/01 07:36:37;;;;;;;5.10;3.47;;;6.20;99.90;;;;;;20676745;28;20509;-41
2024/03/01 07:46:39;;;;;;;14.98;6.00;;;6.20;99.90;;;;;;20652744;28;20453;-41
2024/03/01 07:56:40;;;;;;;9.50;4.43;;;6.30;99.90;;;;;;20667746;28;20092;-41
2024/03/01 08:06:41;;;;;;;15.65;5.78;;;6.50;99.90;;;;;;20661050;28;20031;-41
2024/03/01 08:16:42;;;;;;;12.65;6.05;;;6.60;99.90;;;;;;20676797;28;20046;-41
2024/03/01 08:26:43;;;;;;;18.52;8.23;;;6.80;99.90;;;;;;20672663;28;20068;-42
2024/03/01 08:36:44;;;;;;;18.83;9.37;;;7.00;99.90;;;;;;20676029;28;20037;-41
2024/03/01 08:46:45;;;;;;;15.18;8.60;;;7.20;99.90;;;;;;20682490;28;20467;-41
2024/03/01 08:57:05;;;;;;;19.88;8.77;;;7.40;99.20;;;;;;20673236;28;20046;-41
2024/03/01 09:07:14;;;;;;;16.63;8.32;;;7.60;91.20;;;;;;20666371;28;20041;-41
2024/03/01 09:17:15;;;;;;;14.40;7.35;;;7.90;48.20;;;;;;20667009;28;20506;-41
2024/03/01 09:27:18;;;;;;;13.85;5.97;;;8.10;35.10;;;;;;20664459;28;20496;-41
2024/03/01 09:37:23;;;;;;;10.90;5.90;;;8.40;21.90;;;;;;20672112;28;20050;-42
2024/03/01 09:47:42;;;;;;;14.82;5.30;;;8.40;18.20;;;;;;20663704;28;20398;-41
2024/03/01 09:57:57;;;;;;;13.38;5.50;;;9.00;16.70;;;;;;20667694;28;20181;-41
2024/03/01 10:08:04;;;;;;;10.82;4.90;;;8.90;4.50;;;;;;20670763;28;20064;-41
2024/03/01 10:18:30;;;;;;;11.27;5.63;;;8.80;1.00;;;;;;20676579;28;20046;-41
2024/03/01 10:28:53;;;;;;;13.90;5.03;;;8.90;1.00;;;;;;20664696;28;20411;-41
2024/03/01 10:39:04;;;;;;;8.32;4.50;;;9.20;1.00;;;;;;20664934;28;20038;-41
2024/03/01 10:49:33;;;;;;;9.93;4.85;;;9.10;1.00;;;;;;20657297;28;20094;-41
2024/03/01 10:59:43;;;;;;;8.07;3.63;;;9.20;1.00;;;;;;20617352;28;20061;-41
2024/03/01 11:09:49;;;;;;;6.80;3.40;;;9.40;1.00;;;;;;20651339;28;21655;-41
2024/03/01 11:19:52;;;;;;;9.07;3.33;;;9.90;1.00;;;;;;20636977;28;20042;-42
2024/03/01 11:30:04;;;;;;;9.75;3.30;;;10.20;1.00;;;;;;20652974;28;20049;-42
2024/03/01 11:40:11;;;;;;;10.30;3.70;;;10.30;1.00;;;;;;20643038;28;20081;-42
2024/03/01 11:50:30;;;;;;;7.18;2.78;;;10.70;1.00;;;;;;20644309;28;20038;-42
2024/03/01 12:01:13;;;;;;;5.28;3.28;;;10.20;1.00;;;;;;20640741;28;20053;-42
2024/03/01 12:11:23;;;;;;;7.90;2.22;;;9.70;1.00;;;;;;20565045;28;20156;-42
2024/03/01 12:21:39;;;;;;;5.07;1.63;;;9.60;1.00;;;;;;20677242;28;20033;-42
2024/03/01 12:32:14;;;;;;;5.93;2.05;;;9.70;1.00;;;;;;20686285;28;20042;-42
2024/03/01 12:42:39;;;;;;;5.65;1.40;;;9.80;1.00;;;;;;20569642;28;20078;-41
2024/03/01 12:53:16;;;;;;;9.80;1.67;;;10.20;1.00;;;;;;20592263;28;20486;-42
2024/03/01 13:03:42;;;;;;;6.80;1.48;;;10.10;1.00;;;;;;20591585;28;20069;-41
2024/03/01 13:13:52;;;;;;;3.08;1.10;;;9.90;1.00;;;;;;20592912;28;20105;-41
2024/03/01 13:24:16;;;;;;;4.38;0.90;;;9.70;1.00;;;;;;20589256;28;20046;-41
2024/03/01 13:34:24;;;;;;;2.88;0.70;;;9.80;1.00;;;;;;20589747;28;20041;-42
2024/03/01 13:44:34;;;;;;;2.33;0.70;;;9.80;1.00;;;;;;20671193;28;20041;-41
2024/03/01 13:54:38;;;;;;;3.95;0.63;;;9.80;1.00;;;;;;20669596;28;20053;-41
2024/03/01 14:04:40;;;;;;;2.42;0.68;;;9.90;1.00;;;;;;20670221;28;20453;-42
2024/03/01 14:14:41;;;;;;;3.33;0.70;;;10.10;1.00;;;;;;20656901;28;20545;-41
2024/03/01 14:24:42;;;;;;;1.95;0.40;;;10.20;1.00;;;;;;20657664;28;20046;-41
2024/03/01 14:34:43;;;;;;;2.80;0.50;;;10.00;1.00;;;;;;20665001;28;20045;-42
2024/03/01 14:44:43;;;;;;;2.65;0.68;;;9.90;1.00;;;;;;20655790;28;20070;-41
2024/03/01 14:54:45;;;;;;;4.37;0.90;;;9.80;1.00;;;;;;20647979;28;20042;-41
2024/03/01 15:04:46;;;;;;;6.50;1.02;;;9.80;1.00;;;;;;20648120;28;20070;-41
2024/03/01 15:14:46;;;;;;;6.38;0.90;;;9.60;1.00;;;;;;20649335;28;20049;-41
2024/03/01 15:24:47;;;;;;;5.68;0.88;;;9.60;1.00;;;;;;20653396;28;20042;-41
2024/03/01 15:34:48;;;;;;;3.97;1.00;;;9.40;1.00;;;;;;20657089;28;20054;-42
2024/03/01 15:44:48;;;;;;;6.75;1.60;;;9.40;1.00;;;;;;20656207;28;20037;-42
2024/03/01 15:54:51;;;;;;;4.72;0.90;;;9.40;1.00;;;;;;20652051;28;20045;-41
2024/03/01 16:04:52;;;;;;;4.68;0.80;;;9.60;1.00;;;;;;20650094;28;20042;-41
2024/03/01 16:14:53;;;;;;;4.50;0.98;;;9.50;1.00;;;;;;20654716;28;20044;-41
2024/03/01 16:24:55;;;;;;;4.68;0.90;;;9.50;1.00;;;;;;20646182;28;20035;-41
2024/03/01 16:34:55;;;;;;;3.78;1.25;;;9.40;1.00;;;;;;20654600;28;20066;-41
2024/03/01 16:44:56;;;;;;;3.67;1.30;;;9.50;1.00;;;;;;20637371;28;20157;-46
2024/03/01 16:54:56;;;;;;;6.07;1.00;;;9.60;1.00;;;;;;20666915;28;20464;-41
2024/03/01 17:04:58;;;;;;;6.10;1.17;;;9.60;1.00;;;;;;20680721;28;20544;-41
2024/03/01 17:14:59;;;;;;;5.18;1.10;;;9.70;1.00;;;;;;20672894;28;20473;-41
2024/03/01 17:24:59;;;;;;;6.32;1.60;;;9.80;1.00;;;;;;20664376;28;20054;-41
2024/03/01 17:35:00;;;;;;;4.70;1.58;;;9.50;1.00;;;;;;20678236;28;20482;-41
2024/03/01 17:45:01;;;;;;;4.00;1.15;;;9.10;1.00;;;;;;20673763;28;20041;-41
2024/03/01 17:55:02;;;;;;;3.15;1.33;;;8.70;6.00;;;;;;20678568;28;20485;-43
2024/03/01 18:05:05;;;;;;;6.80;1.50;;;8.40;21.60;;;;;;20668936;28;20034;-41
2024/03/01 18:15:06;;;;;;;3.63;1.45;;;8.30;39.20;;;;;;20666631;28;20152;-41
2024/03/01 18:25:11;;;;;;;3.80;2.25;;;8.10;63.80;;;;;;20669033;28;20045;-39
2024/03/01 18:35:11;;;;;;;5.72;2.40;;;8.10;67.70;;;;;;20660922;28;20100;-39
2024/03/01 18:45:12;;;;;;;3.28;1.92;;;8.10;75.50;;;;;;20663643;28;20034;-39
2024/03/01 18:55:14;;;;;;;14.05;7.75;;;8.00;76.00;;;;;;20665936;28;20050;-42
2024/03/01 19:05:14;;;;;;;8.15;3.65;;;8.00;82.30;;;;;;20657068;28;20104;-42
2024/03/01 19:15:16;;;;;;;6.95;4.72;;;8.00;90.90;;;;;;20664220;28;20121;-39
2024/03/01 19:25:17;;;;;;;5.63;3.45;;;8.00;93.60;;;;;;20664792;28;20084;-41
2024/03/01 19:35:17;;;;;;;6.18;2.38;;;8.00;93.80;;;;;;20664595;28;20050;-42
2024/03/01 19:45:18;;;;;;;2.80;0.98;;;8.10;85.90;;;;;;20665037;28;20058;-41
2024/03/01 19:55:18;;;;;;;3.57;0.80;;;8.30;12.10;;;;;;20665249;28;20046;-41
2024/03/01 20:05:20;;;;;;;5.30;1.13;;;8.70;1.00;;;;;;20666106;28;20491;-41
2024/03/01 20:15:21;;;;;;;3.95;1.30;;;9.00;1.00;;;;;;20668528;28;20038;-41
2024/03/01 20:25:24;;;;;;;3.20;1.20;;;9.10;1.00;;;;;;20664356;28;20130;-41
2024/03/01 20:35:26;;;;;;;2.28;0.80;;;9.20;1.00;;;;;;20672705;28;20048;-41
2024/03/01 20:45:27;;;;;;;4.07;1.10;;;9.30;1.00;;;;;;20680148;28;20065;-41
2024/03/01 20:55:28;;;;;;;2.15;0.90;;;9.50;1.00;;;;;;20673228;28;20087;-41
2024/03/01 21:05:29;;;;;;;3.88;1.02;;;9.50;1.00;;;;;;20654353;28;20397;-41
2024/03/01 21:15:30;;;;;;;3.80;1.10;;;9.40;1.00;;;;;;20660492;28;20433;-41
2024/03/01 21:25:30;;;;;;;3.25;1.52;;;9.20;1.00;;;;;;20659058;28;21465;-40
2024/03/01 21:35:36;;;;;;;5.68;2.08;;;9.10;1.00;;;;;;20669408;28;20576;-41
2024/03/01 21:45:36;;;;;;;2.65;1.20;;;9.10;1.00;;;;;;20670217;28;20349;-41
2024/03/01 21:55:37;;;;;;;3.63;1.35;;;9.00;1.00;;;;;;20681796;28;20169;-41
2024/03/01 22:05:37;;;;;;;3.17;1.40;;;9.00;1.00;;;;;;20674893;28;20528;-41
2024/03/01 22:15:38;;;;;;;3.15;1.20;;;8.90;1.00;;;;;;20675930;28;20080;-40
2024/03/01 22:25:39;;;;;;;4.47;1.38;;;9.00;1.00;;;;;;20686538;28;20030;-40
2024/03/01 22:35:40;;;;;;;3.95;1.00;;;9.10;1.00;;;;;;20677553;28;20611;-41
2024/03/01 22:45:41;;;;;;;3.55;1.52;;;9.20;1.00;;;;;;20676510;28;20034;-41
2024/03/01 22:55:44;;;;;;;2.72;1.00;;;9.20;1.00;;;;;;20678135;28;20053;-40
2024/03/01 23:05:51;;;;;;;4.10;1.10;;;9.20;1.00;;;;;;20672383;28;20037;-41
2024/03/01 23:15:52;;;;;;;;;;;9.10;1.00;;;;;;20671000;28;20050;-41
2024/03/01 23:25:53;;;;;;;2.83;1.20;;;9.10;1.00;;;;;;20670206;28;20756;-40
2024/03/01 23:35:55;;;;;;;2.08;1.08;;;9.10;1.00;;;;;;20668956;28;20443;-40
2024/03/01 23:45:55;;;;;;;3.95;1.40;;;9.10;1.00;;;;;;20670487;28;20051;-41
2024/03/01 23:55:56;;;;;;;2.27;1.30;;;9.10;1.00;;;;;;20665990;28;20053;-40
